Time;durP1;ratioP1;P1;durP2;ratioP2;P2;SDS_P1;SDS_P2;PMS_P1;PMS_P2;Temp;Humidity;BMP_temperature;BMP_pressure;BME280_temperature;BME280_humidity;BME280_pressure;Samples;Min_cycle;Max_cycle;Signal;HPM_P1;HPM_P2
2024/04/05 00:01:48;;;;;;;;;;;;;;;10.38;82.14;101001.98;106910;1275;24249;-45
2024/04/05 00:04:16;;;;;;;;;;;;;;;10.39;82.19;101000.68;106897;1273;25862;-45
2024/04/05 00:06:42;;;;;;;;;;;;;;;10.40;82.30;101001.14;107071;1275;22778;-46
2024/04/05 00:09:09;;;;;;;;;;;;;;;10.39;82.17;100997.55;106885;1275;23467;-47
2024/04/05 00:11:35;;;;;;;;;;;;;;;10.38;82.30;100990.35;106961;1275;22518;-45
2024/04/05 00:14:02;;;;;;;;;;;;;;;10.36;82.32;100989.55;106862;1272;24189;-46
2024/04/05 00:16:29;;;;;;;;;;;;;;;10.35;82.42;100993.71;106779;1275;25344;-45
2024/04/05 00:18:59;;;;;;;;;;;;;;;10.33;82.66;100991.52;106853;1275;22449;-45
2024/04/05 00:21:25;;;;;;;;;;;;;;;10.31;82.86;100988.27;106798;1275;22554;-46
2024/04/05 00:23:54;;;;;;;;;;;;;;;10.28;83.02;100991.35;106914;1275;22480;-46
2024/04/05 00:26:20;;;;;;;;;;;;;;;10.26;83.24;100994.97;107010;1275;22452;-48
2024/04/05 00:28:47;;;;;;;;;;;;;;;10.25;83.58;100992.38;106920;1275;22801;-46
2024/04/05 00:31:13;;;;;;;;;;;;;;;10.24;83.92;100992.11;106937;1275;22545;-48
2024/04/05 00:33:40;;;;;;;;;;;;;;;10.24;84.05;100998.46;106862;1275;25463;-47
2024/04/05 00:36:06;;;;;;;;;;;;;;;10.25;84.35;100998.89;106870;1272;22488;-48
2024/04/05 00:38:33;;;;;;;;;;;;;;;10.28;84.82;100995.44;106864;1275;22662;-50
2024/04/05 00:41:00;;;;;;;;;;;;;;;10.31;85.00;100998.66;106771;1275;22619;-48
2024/04/05 00:43:26;;;;;;;;;;;;;;;10.35;85.33;100998.42;107032;1275;24269;-49
2024/04/05 00:45:54;;;;;;;;;;;;;;;10.41;85.70;100994.95;106947;1275;24479;-50
2024/04/05 00:48:21;;;;;;;;;;;;;;;10.46;85.76;100984.97;106949;1275;22661;-45
2024/04/05 00:50:49;;;;;;;;;;;;;;;10.53;85.97;100980.91;107011;1275;22591;-48
2024/04/05 00:53:16;;;;;;;;;;;;;;;10.57;86.18;100985.80;106990;1275;22424;-51
2024/04/05 00:55:43;;;;;;;;;;;;;;;10.61;86.25;100993.73;106987;1275;22454;-51
2024/04/05 00:58:10;;;;;;;;;;;;;;;10.63;86.45;100989.70;106860;1275;22765;-49
2024/04/05 01:00:36;;;;;;;;;;;;;;;10.65;86.54;100993.11;106662;1274;22802;-52
2024/04/05 01:03:03;;;;;;;;;;;;;;;10.65;86.63;100998.59;107067;1275;22417;-52
2024/04/05 01:05:30;;;;;;;;;;;;;;;10.65;86.82;101002.98;106932;1275;22805;-47
2024/04/05 01:07:56;;;;;;;;;;;;;;;10.65;86.95;101003.55;107007;1275;24145;-45
2024/04/05 01:10:23;;;;;;;;;;;;;;;10.66;87.06;101005.59;106928;1275;22440;-47
2024/04/05 01:13:06;;;;;;;;;;;;;;;10.67;87.33;101005.56;106919;1275;25426;-46
2024/04/05 01:15:33;;;;;;;;;;;;;;;10.70;87.43;101006.65;106954;1275;25409;-49
2024/04/05 01:17:59;;;;;;;;;;;;;;;10.72;87.72;101007.45;106895;1273;22438;-49
2024/04/05 01:20:26;;;;;;;;;;;;;;;10.75;87.78;101011.88;107104;1275;22671;-51
2024/04/05 01:22:53;;;;;;;;;;;;;;;10.79;87.98;101008.80;106968;1275;22485;-50
2024/04/05 01:25:23;;;;;;;;;;;;;;;10.84;88.06;101012.05;106964;1275;22684;-45
2024/04/05 01:27:49;;;;;;;;;;;;;;;10.88;88.13;101006.85;106871;1275;25874;-47
2024/04/05 01:30:16;;;;;;;;;;;;;;;10.93;88.00;101005.93;106787;1275;24398;-45
2024/04/05 01:32:49;;;;;;;;;;;;;;;10.94;87.85;101000.05;106762;1275;22454;-47
2024/04/05 01:35:15;;;;;;;;;;;;;;;10.94;88.01;101000.05;106907;1268;22527;-45
2024/04/05 01:37:42;;;;;;;;;;;;;;;10.93;88.09;100996.36;106946;1275;22991;-46
2024/04/05 01:40:11;;;;;;;;;;;;;;;10.93;88.13;100991.80;107018;1275;22910;-47
2024/04/05 01:42:40;;;;;;;;;;;;;;;10.94;88.18;100991.58;107056;1271;22782;-46
2024/04/05 01:45:07;;;;;;;;;;;;;;;10.95;88.32;100991.65;106997;1275;25272;-45
2024/04/05 01:47:33;;;;;;;;;;;;;;;10.97;88.37;100993.47;106867;1275;24344;-47
2024/04/05 01:50:01;;;;;;;;;;;;;;;11.00;88.51;100989.44;106956;1275;24229;-46
2024/04/05 01:52:27;;;;;;;;;;;;;;;11.03;88.43;100992.27;106994;1275;24659;-48
2024/04/05 01:54:54;;;;;;;;;;;;;;;11.06;88.49;100988.58;106986;1275;25237;-44
2024/04/05 01:57:21;;;;;;;;;;;;;;;11.06;88.49;100991.38;106921;1275;24438;-44
2024/04/05 01:59:48;;;;;;;;;;;;;;;11.07;88.47;100987.66;106900;1275;25473;-45
2024/04/05 02:02:14;;;;;;;;;;;;;;;11.06;88.38;100981.30;106974;1275;25389;-45
2024/04/05 02:04:41;;;;;;;;;;;;;;;11.06;88.42;100986.10;106514;1275;348596;-46
2024/04/05 02:07:10;;;;;;;;;;;;;;;11.05;88.48;100983.83;106963;1275;24185;-46
2024/04/05 02:09:37;;;;;;;;;;;;;;;11.06;88.50;100986.09;106957;1275;22504;-46
2024/04/05 02:12:05;;;;;;;;;;;;;;;11.07;88.51;100986.02;106846;1275;22505;-45
2024/04/05 02:14:32;;;;;;;;;;;;;;;11.09;88.65;100984.33;106961;1275;22635;-46
2024/04/05 02:17:01;;;;;;;;;;;;;;;11.11;88.64;100979.29;106894;1275;23610;-50
2024/04/05 02:19:28;;;;;;;;;;;;;;;11.12;88.56;100961.71;106830;1275;24354;-49
2024/04/05 02:21:54;;;;;;;;;;;;;;;11.11;88.61;100959.31;106790;1275;25214;-46
2024/04/05 02:24:21;;;;;;;;;;;;;;;11.10;88.60;100958.63;106803;1275;23876;-45
2024/04/05 02:26:48;;;;;;;;;;;;;;;11.09;88.64;100960.60;106883;1275;22441;-49
2024/04/05 02:29:14;;;;;;;;;;;;;;;11.09;88.67;100957.61;106828;1275;22651;-50
2024/04/05 02:31:41;;;;;;;;;;;;;;;11.08;88.65;100958.71;106792;1275;25454;-50
2024/04/05 02:34:07;;;;;;;;;;;;;;;11.08;88.82;100961.04;106892;1275;22421;-45
2024/04/05 02:36:34;;;;;;;;;;;;;;;11.09;88.84;100967.73;106792;1266;23917;-45
2024/04/05 02:39:00;;;;;;;;;;;;;;;11.10;88.81;100971.35;106778;1275;22639;-45
2024/04/05 02:41:27;;;;;;;;;;;;;;;11.12;89.10;100982.95;106813;1275;25263;-45
2024/04/05 02:43:54;;;;;;;;;;;;;;;11.13;89.07;100984.45;106778;1275;24359;-45
2024/04/05 02:46:20;;;;;;;;;;;;;;;11.14;89.00;100985.48;106778;1275;25426;-45
2024/04/05 02:48:47;;;;;;;;;;;;;;;11.13;89.01;100979.85;106809;1275;22627;-45
2024/04/05 02:51:13;;;;;;;;;;;;;;;11.12;88.96;100977.45;106903;1275;22457;-45
2024/04/05 02:53:42;;;;;;;;;;;;;;;11.11;88.97;100982.64;106892;1275;22503;-45
2024/04/05 02:56:09;;;;;;;;;;;;;;;11.12;89.08;100984.52;107139;1275;22472;-46
2024/04/05 02:58:36;;;;;;;;;;;;;;;11.13;89.21;100987.13;107110;1275;25228;-44
2024/04/05 03:01:03;;;;;;;;;;;;;;;11.15;89.15;100983.14;106994;1271;22648;-47
2024/04/05 03:03:30;;;;;;;;;;;;;;;11.16;89.13;100986.76;106702;1275;25396;-49
2024/04/05 03:05:57;;;;;;;;;;;;;;;11.17;89.10;100985.15;106882;1275;25488;-47
2024/04/05 03:08:23;;;;;;;;;;;;;;;11.15;88.97;100983.63;107076;1275;22521;-49
2024/04/05 03:10:50;;;;;;;;;;;;;;;11.13;89.01;100984.66;106867;1275;23859;-45
2024/04/05 03:13:16;;;;;;;;;;;;;;;11.10;89.01;100987.62;106826;1275;22910;-46
2024/04/05 03:15:46;;;;;;;;;;;;;;;11.08;89.00;100987.91;106810;1275;22803;-47
2024/04/05 03:18:13;;;;;;;;;;;;;;;11.05;89.02;100988.27;106813;1275;22628;-46
2024/04/05 03:20:39;;;;;;;;;;;;;;;11.04;89.22;100984.27;106873;1275;22453;-46
2024/04/05 03:23:06;;;;;;;;;;;;;;;11.05;89.27;100982.77;106792;1271;22422;-49
2024/04/05 03:25:33;;;;;;;;;;;;;;;11.05;89.20;100979.94;106917;1275;22500;-46
2024/04/05 03:27:59;;;;;;;;;;;;;;;11.05;89.20;100975.86;106774;1275;25350;-45
2024/04/05 03:30:26;;;;;;;;;;;;;;;11.04;89.19;100972.43;106700;1275;22492;-45
2024/04/05 03:32:52;;;;;;;;;;;;;;;11.01;89.22;100966.57;106894;1275;22495;-44
2024/04/05 03:35:19;;;;;;;;;;;;;;;10.98;89.41;100969.21;106969;1275;22648;-44
2024/04/05 03:37:48;;;;;;;;;;;;;;;10.96;89.53;100968.45;106775;1275;23202;-48
2024/04/05 03:40:15;;;;;;;;;;;;;;;10.95;89.73;100969.21;106765;1275;24053;-48
2024/04/05 03:42:41;;;;;;;;;;;;;;;10.95;89.98;100969.57;106851;1275;22499;-47
2024/04/05 03:45:08;;;;;;;;;;;;;;;10.96;90.13;100965.23;106948;1275;24167;-50
2024/04/05 03:47:37;;;;;;;;;;;;;;;10.98;90.26;100965.31;106860;1259;22522;-50
2024/04/05 03:50:04;;;;;;;;;;;;;;;11.00;90.42;100968.58;106843;1275;22506;-50
2024/04/05 03:52:30;;;;;;;;;;;;;;;11.01;90.67;100968.54;106846;1275;25262;-50
2024/04/05 03:54:57;;;;;;;;;;;;;;;11.03;90.84;100965.55;106967;1275;22602;-49
2024/04/05 03:57:24;;;;;;;;;;;;;;;11.05;91.03;100965.11;106933;1275;22427;-49
2024/04/05 03:59:50;;;;;;;;;;;;;;;11.05;91.12;100967.03;106851;1275;24178;-50
2024/04/05 04:02:17;;;;;;;;;;;;;;;11.06;91.27;100965.20;106894;1275;23949;-50
2024/04/05 04:04:46;;;;;;;;;;;;;;;11.07;91.37;100964.96;106858;1273;24274;-50
2024/04/05 04:07:15;;;;;;;;;;;;;;;11.07;91.66;100960.73;107180;1275;24135;-50
2024/04/05 04:09:41;;;;;;;;;;;;;;;11.09;92.03;100962.75;106943;1275;22438;-44
2024/04/05 04:12:08;;;;;;;;;;;;;;;11.12;92.33;100963.48;106958;1275;24203;-44
2024/04/05 04:14:34;;;;;;;;;;;;;;;11.14;92.73;100954.34;106924;1275;24213;-44
2024/04/05 04:17:01;;;;;;;;;;;;;;;11.17;93.25;100955.98;106961;1275;22667;-47
2024/04/05 04:19:27;;;;;;;;;;;;;;;11.19;93.55;100959.04;106761;1275;24200;-45
2024/04/05 04:21:54;;;;;;;;;;;;;;;11.22;93.94;100959.38;106726;1275;24418;-44
2024/04/05 04:24:20;;;;;;;;;;;;;;;11.23;94.29;100961.95;106770;1275;25891;-46
2024/04/05 04:26:47;;;;;;;;;;;;;;;11.24;94.71;100957.30;106790;1275;23975;-45
2024/04/05 04:29:14;;;;;;;;;;;;;;;11.26;94.89;100948.88;106824;1275;22457;-44
2024/04/05 04:31:42;;;;;;;;;;;;;;;11.27;95.04;100928.83;106785;1275;22638;-46
2024/04/05 04:34:09;;;;;;;;;;;;;;;11.28;95.34;100925.94;106834;1275;22427;-44
2024/04/05 04:36:35;;;;;;;;;;;;;;;11.28;95.53;100924.52;106853;1275;22435;-45
2024/04/05 04:39:08;;;;;;;;;;;;;;;11.29;95.90;100922.17;106966;1275;25089;-45
2024/04/05 04:41:35;;;;;;;;;;;;;;;11.33;96.21;100926.19;106983;1275;23884;-44
2024/04/05 04:44:02;;;;;;;;;;;;;;;11.37;96.41;100934.09;106975;1275;24144;-46
2024/04/05 04:46:29;;;;;;;;;;;;;;;11.41;96.37;100932.98;106950;1275;25388;-44
2024/04/05 04:48:57;;;;;;;;;;;;;;;11.43;96.44;100923.29;106921;1275;25460;-46
2024/04/05 04:51:24;;;;;;;;;;;;;;;11.44;96.64;100923.02;106914;1275;25201;-44
2024/04/05 04:53:54;;;;;;;;;;;;;;;11.43;96.73;100926.66;106841;1275;24571;-44
2024/04/05 04:56:21;;;;;;;;;;;;;;;11.42;96.84;100926.17;106848;1275;24239;-46
2024/04/05 04:58:49;;;;;;;;;;;;;;;11.42;96.94;100916.64;106777;1268;24386;-50
2024/04/05 05:01:16;;;;;;;;;;;;;;;11.41;96.91;100915.81;107068;1275;22594;-47
2024/04/05 05:03:42;;;;;;;;;;;;;;;11.40;96.89;100912.14;107019;1275;25211;-48
2024/04/05 05:06:09;;;;;;;;;;;;;;;11.40;96.96;100909.32;107043;1275;25307;-45
2024/04/05 05:08:36;;;;;;;;;;;;;;;11.40;97.08;100912.84;106944;1275;22434;-45
2024/04/05 05:11:03;;;;;;;;;;;;;;;11.41;97.29;100912.64;107067;1275;24197;-45
2024/04/05 05:13:30;;;;;;;;;;;;;;;11.42;97.34;100909.39;106946;1275;22933;-46
2024/04/05 05:15:57;;;;;;;;;;;;;;;11.43;97.58;100906.66;106964;1271;22577;-45
2024/04/05 05:18:26;;;;;;;;;;;;;;;11.42;97.64;100894.69;106976;1275;22490;-45
2024/04/05 05:20:54;;;;;;;;;;;;;;;11.42;97.87;100894.02;106968;1275;23226;-45
2024/04/05 05:23:21;;;;;;;;;;;;;;;11.41;98.12;100886.27;107015;1275;22523;-49
2024/04/05 05:25:48;;;;;;;;;;;;;;;11.42;98.35;100877.55;106916;1274;22454;-46
2024/04/05 05:28:14;;;;;;;;;;;;;;;11.43;98.60;100873.96;106796;1271;22649;-46
2024/04/05 05:30:41;;;;;;;;;;;;;;;11.42;98.77;100884.06;106790;1275;22595;-48
2024/04/05 05:33:08;;;;;;;;;;;;;;;11.43;99.08;100892.00;106769;1275;24251;-46
2024/04/05 05:35:37;;;;;;;;;;;;;;;11.45;99.10;100896.63;106825;1275;22456;-49
2024/04/05 05:38:04;;;;;;;;;;;;;;;11.46;99.37;100889.16;106804;1275;22419;-48
2024/04/05 05:40:31;;;;;;;;;;;;;;;11.48;99.43;100886.00;106956;1275;22875;-51
2024/04/05 05:42:57;;;;;;;;;;;;;;;11.49;99.55;100890.40;106958;1275;22496;-46
2024/04/05 05:45:24;;;;;;;;;;;;;;;11.50;99.57;100889.82;106853;1267;25259;-43
2024/04/05 05:47:52;;;;;;;;;;;;;;;11.49;99.66;100879.75;106976;1275;22520;-44
2024/04/05 05:50:19;;;;;;;;;;;;;;;11.49;99.91;100878.19;106912;1275;22794;-44
2024/04/05 05:52:46;;;;;;;;;;;;;;;11.48;99.99;100872.23;106829;1275;22630;-45
2024/04/05 05:55:13;;;;;;;;;;;;;;;11.48;100.00;100864.05;106800;1275;22652;-44
2024/04/05 05:57:39;;;;;;;;;;;;;;;11.50;100.00;100852.44;106816;1275;22708;-45
2024/04/05 06:00:09;;;;;;;;;;;;;;;11.53;100.00;100842.17;106805;1274;22513;-44
2024/04/05 06:02:37;;;;;;;;;;;;;;;11.57;100.00;100853.31;106795;1275;25353;-44
2024/04/05 06:05:05;;;;;;;;;;;;;;;11.61;100.00;100863.32;106936;1275;22442;-45
2024/04/05 06:07:31;;;;;;;;;;;;;;;11.64;100.00;100853.91;107040;1275;24192;-45
2024/04/05 06:09:59;;;;;;;;;;;;;;;11.67;100.00;100839.56;107008;1275;24157;-44
2024/04/05 06:12:26;;;;;;;;;;;;;;;11.72;100.00;100823.33;106920;1275;22504;-46
2024/04/05 06:14:56;;;;;;;;;;;;;;;11.77;100.00;100826.23;106846;1275;25493;-46
2024/04/05 06:17:27;;;;;;;;;;;;;;;11.80;100.00;100829.55;107008;1275;22628;-45
2024/04/05 06:19:54;;;;;;;;;;;;;;;11.84;100.00;100831.45;106940;1275;25889;-45
2024/04/05 06:22:21;;;;;;;;;;;;;;;11.90;100.00;100825.48;106816;1275;25213;-45
2024/04/05 06:24:48;;;;;;;;;;;;;;;11.95;100.00;100821.23;106946;1275;25550;-46
2024/04/05 06:27:15;;;;;;;;;;;;;;;12.00;100.00;100816.70;106950;1275;22504;-45
2024/04/05 06:29:42;;;;;;;;;;;;;;;12.07;100.00;100815.73;106855;1275;22451;-45
2024/04/05 06:32:09;;;;;;;;;;;;;;;12.12;100.00;100809.73;106883;1275;22877;-46
2024/04/05 06:34:40;;;;;;;;;;;;;;;12.18;100.00;100818.91;106855;1275;22446;-45
2024/04/05 06:37:06;;;;;;;;;;;;;;;12.23;100.00;100812.42;106799;1275;22509;-46
2024/04/05 06:39:33;;;;;;;;;;;;;;;12.25;100.00;100799.33;106807;1275;24418;-45
2024/04/05 06:42:00;;;;;;;;;;;;;;;12.26;100.00;100796.65;106886;1275;23918;-47
2024/04/05 06:44:31;;;;;;;;;;;;;;;12.26;100.00;100793.23;106797;1271;23808;-46
2024/04/05 06:46:58;;;;;;;;;;;;;;;12.26;100.00;100775.33;106803;1275;22457;-47
2024/04/05 06:49:24;;;;;;;;;;;;;;;12.29;100.00;100766.15;107086;1275;22609;-48
2024/04/05 06:51:51;;;;;;;;;;;;;;;12.30;100.00;100761.27;107007;1275;24132;-48
2024/04/05 06:54:18;;;;;;;;;;;;;;;12.32;100.00;100756.70;106887;1268;22712;-49
2024/04/05 06:56:44;;;;;;;;;;;;;;;12.35;100.00;100762.91;106848;1275;25502;-49
2024/04/05 06:59:11;;;;;;;;;;;;;;;12.38;100.00;100762.67;106907;1275;22565;-45
2024/04/05 07:01:38;;;;;;;;;;;;;;;12.42;100.00;100761.23;106914;1275;22453;-45
2024/04/05 07:04:05;;;;;;;;;;;;;;;12.47;100.00;100768.86;106955;1275;24189;-51
2024/04/05 07:06:35;;;;;;;;;;;;;;;12.51;100.00;100773.00;106952;1275;22506;-51
2024/04/05 07:09:04;;;;;;;;;;;;;;;12.56;100.00;100762.22;107005;1275;22660;-50
2024/04/05 07:11:31;;;;;;;;;;;;;;;12.60;100.00;100755.05;106968;1275;22819;-50
2024/04/05 07:13:57;;;;;;;;;;;;;;;12.66;100.00;100750.92;106866;1275;22516;-47
2024/04/05 07:16:24;;;;;;;;;;;;;;;12.72;100.00;100740.78;106833;1272;23874;-45
2024/04/05 07:18:53;;;;;;;;;;;;;;;12.78;100.00;100742.86;106939;1271;22705;-44
2024/04/05 07:21:19;;;;;;;;;;;;;;;12.84;99.99;100736.64;106961;1275;25332;-46
2024/04/05 07:23:47;;;;;;;;;;;;;;;12.90;99.92;100738.69;107091;1275;25305;-44
2024/04/05 07:26:14;;;;;;;;;;;;;;;12.93;99.76;100733.13;106876;1275;25344;-44
2024/04/05 07:28:40;;;;;;;;;;;;;;;12.96;99.45;100732.05;106798;1265;22814;-46
2024/04/05 07:31:07;;;;;;;;;;;;;;;12.99;99.54;100735.04;106816;1275;22440;-44
2024/04/05 07:33:33;;;;;;;;;;;;;;;13.02;99.12;100735.61;106800;1275;23924;-45
2024/04/05 07:36:03;;;;;;;;;;;;;;;13.02;99.07;100737.34;106967;1275;22485;-46
2024/04/05 07:38:30;;;;;;;;;;;;;;;13.02;98.74;100733.79;107033;1275;22982;-46
2024/04/05 07:41:03;;;;;;;;;;;;;;;13.02;98.75;100727.77;106778;1275;22491;-45
2024/04/05 07:43:29;;;;;;;;;;;;;;;13.03;98.64;100722.21;106928;1275;22540;-45
2024/04/05 07:45:56;;;;;;;;;;;;;;;13.04;98.51;100727.98;106907;1275;24994;-45
2024/04/05 07:48:23;;;;;;;;;;;;;;;13.06;98.31;100730.86;106953;1275;24258;-46
2024/04/05 07:50:49;;;;;;;;;;;;;;;13.08;98.37;100726.96;107022;1275;25845;-46
2024/04/05 07:53:16;;;;;;;;;;;;;;;13.11;98.39;100723.41;106982;1275;25385;-52
2024/04/05 07:55:43;;;;;;;;;;;;;;;13.14;98.43;100718.08;106870;1275;23791;-53
2024/04/05 07:58:10;;;;;;;;;;;;;;;13.16;98.21;100715.64;106962;1275;22522;-54
2024/04/05 08:00:36;;;;;;;;;;;;;;;13.19;98.24;100713.51;106774;1275;22556;-54
2024/04/05 08:03:03;;;;;;;;;;;;;;;13.22;98.13;100709.06;106791;1275;24147;-52
2024/04/05 08:05:30;;;;;;;;;;;;;;;13.25;97.92;100706.86;106835;1265;25863;-54
2024/04/05 08:07:59;;;;;;;;;;;;;;;13.28;97.86;100694.80;106803;1275;22485;-53
2024/04/05 08:10:26;;;;;;;;;;;;;;;13.30;97.71;100685.92;106890;1275;22451;-54
2024/04/05 08:12:55;;;;;;;;;;;;;;;13.33;97.56;100686.97;106762;1275;23959;-54
2024/04/05 08:15:22;;;;;;;;;;;;;;;13.36;97.46;100681.64;106803;1275;25317;-54
2024/04/05 08:17:49;;;;;;;;;;;;;;;13.36;97.33;100679.49;106791;1275;22646;-54
2024/04/05 08:20:16;;;;;;;;;;;;;;;13.37;97.05;100678.02;106809;1275;22569;-53
2024/04/05 08:22:42;;;;;;;;;;;;;;;13.36;96.88;100671.14;106803;1275;22439;-53
2024/04/05 08:25:09;;;;;;;;;;;;;;;13.35;96.44;100668.16;106798;1275;22430;-52
2024/04/05 08:27:36;;;;;;;;;;;;;;;13.37;96.48;100670.58;106819;1275;25343;-54
2024/04/05 08:30:05;;;;;;;;;;;;;;;13.37;96.09;100690.09;106892;1275;22628;-50
2024/04/05 08:32:32;;;;;;;;;;;;;;;13.37;96.06;100693.65;106865;1275;22663;-53
2024/04/05 08:35:00;;;;;;;;;;;;;;;13.39;95.82;100686.04;106867;1275;24203;-53
2024/04/05 08:37:26;;;;;;;;;;;;;;;13.39;95.62;100665.79;106802;1275;23925;-54
2024/04/05 08:39:53;;;;;;;;;;;;;;;13.40;96.03;100641.60;106950;1275;22721;-55
2024/04/05 08:42:19;;;;;;;;;;;;;;;13.40;95.87;100624.69;106894;1275;22674;-54
2024/04/05 08:44:49;;;;;;;;;;;;;;;13.40;95.83;100620.48;106794;1275;25922;-53
2024/04/05 08:47:16;;;;;;;;;;;;;;;13.41;95.88;100614.58;106791;1275;22663;-53
2024/04/05 08:49:47;;;;;;;;;;;;;;;13.42;96.02;100611.80;106756;1275;22432;-50
2024/04/05 08:52:14;;;;;;;;;;;;;;;13.43;95.89;100603.23;107156;1275;22610;-48
2024/04/05 08:54:40;;;;;;;;;;;;;;;13.44;95.73;100599.21;106997;1275;23018;-50
2024/04/05 08:57:08;;;;;;;;;;;;;;;13.44;95.48;100586.98;106791;1275;22457;-46
2024/04/05 08:59:35;;;;;;;;;;;;;;;13.44;95.29;100586.95;106789;1275;23204;-46
2024/04/05 09:02:02;;;;;;;;;;;;;;;13.45;95.27;100594.91;106868;1275;23018;-48
2024/04/05 09:04:30;;;;;;;;;;;;;;;13.43;94.79;100597.87;106906;1275;25384;-47
2024/04/05 09:06:59;;;;;;;;;;;;;;;13.43;94.64;100584.56;106992;1275;22447;-47
2024/04/05 09:09:29;;;;;;;;;;;;;;;13.44;94.50;100589.65;106977;1275;22843;-47
2024/04/05 09:12:03;;;;;;;;;;;;;;;13.47;94.49;100596.20;106850;1275;22458;-45
2024/04/05 09:14:36;;;;;;;;;;;;;;;13.49;94.48;100603.52;106812;1275;22472;-46
2024/04/05 09:17:15;;;;;;;;;;;;;;;13.51;94.31;100637.63;106777;1275;22801;-46
2024/04/05 09:19:42;;;;;;;;;;;;;;;13.54;94.30;100670.56;106826;1275;22729;-46
2024/04/05 09:22:19;;;;;;;;;;;;;;;13.57;94.29;100693.98;106930;1275;25606;-45
2024/04/05 09:24:46;;;;;;;;;;;;;;;13.60;94.16;100706.05;107037;1275;24188;-46
2024/04/05 09:27:17;;;;;;;;;;;;;;;13.62;94.28;100715.29;106827;1275;25419;-45
2024/04/05 09:29:43;;;;;;;;;;;;;;;13.63;94.30;100712.04;106872;1275;24372;-46
2024/04/05 09:32:17;;;;;;;;;;;;;;;13.61;94.36;100703.30;106913;1275;24145;-45
2024/04/05 09:34:43;;;;;;;;;;;;;;;13.59;94.28;100703.27;106829;1275;22432;-45
2024/04/05 09:37:10;;;;;;;;;;;;;;;13.59;94.63;100704.88;106791;1275;22645;-46
2024/04/05 09:39:36;;;;;;;;;;;;;;;13.58;94.84;100699.63;106799;1275;22515;-47
2024/04/05 09:42:03;;;;;;;;;;;;;;;13.58;94.98;100701.35;106877;1275;22515;-45
2024/04/05 09:44:29;;;;;;;;;;;;;;;13.59;94.87;100704.71;106912;1275;22694;-46
2024/04/05 09:46:57;;;;;;;;;;;;;;;13.59;94.95;100699.48;106890;1275;23911;-46
2024/04/05 09:49:24;;;;;;;;;;;;;;;13.61;95.06;100703.48;106819;1275;22666;-46
2024/04/05 09:51:52;;;;;;;;;;;;;;;13.63;95.27;100711.48;106775;1275;22506;-46
2024/04/05 09:54:19;;;;;;;;;;;;;;;13.67;95.49;100706.60;106868;1275;22515;-45
2024/04/05 09:56:46;;;;;;;;;;;;;;;13.69;95.22;100702.89;106775;1275;22676;-45
2024/04/05 09:59:14;;;;;;;;;;;;;;;13.70;95.29;100690.05;106788;1275;24225;-48
2024/04/05 10:01:42;;;;;;;;;;;;;;;13.68;95.36;100686.41;106860;1275;22659;-47
2024/04/05 10:04:09;;;;;;;;;;;;;;;13.68;95.55;100691.77;106786;1275;22622;-47
2024/04/05 10:06:38;;;;;;;;;;;;;;;13.68;95.56;100693.38;106955;1275;24261;-47
2024/04/05 10:09:18;;;;;;;;;;;;;;;13.66;95.79;100692.28;106996;1275;25399;-50
2024/04/05 10:11:45;;;;;;;;;;;;;;;13.64;96.03;100691.17;106774;1275;24136;-51
2024/04/05 10:14:25;;;;;;;;;;;;;;;13.63;96.28;100677.05;106805;1275;22495;-50
2024/04/05 10:16:52;;;;;;;;;;;;;;;13.64;96.60;100664.56;106871;1275;22444;-50
2024/04/05 10:19:19;;;;;;;;;;;;;;;13.66;96.82;100651.77;106902;1275;25912;-52
2024/04/05 10:21:45;;;;;;;;;;;;;;;13.68;96.99;100643.44;106951;1275;25346;-49
2024/04/05 10:24:12;;;;;;;;;;;;;;;13.74;97.07;100636.30;106818;1275;25349;-52
2024/04/05 10:26:51;;;;;;;;;;;;;;;13.80;97.46;100636.72;106852;1275;24204;-52
2024/04/05 10:29:18;;;;;;;;;;;;;;;13.89;97.51;100632.15;106987;1275;23505;-52
2024/04/05 10:31:45;;;;;;;;;;;;;;;13.99;97.84;100645.64;106890;1275;24138;-52
2024/04/05 10:34:11;;;;;;;;;;;;;;;14.09;97.64;100625.75;106879;1275;22798;-46
2024/04/05 10:36:38;;;;;;;;;;;;;;;14.16;97.40;100631.57;106958;1275;22443;-46
2024/04/05 10:39:17;;;;;;;;;;;;;;;14.22;96.74;100625.64;107060;1275;22514;-47
2024/04/05 10:41:44;;;;;;;;;;;;;;;14.28;96.30;100635.71;106997;1275;22448;-46
2024/04/05 10:44:14;;;;;;;;;;;;;;;14.33;96.28;100633.30;106862;1269;22552;-46
2024/04/05 10:46:41;;;;;;;;;;;;;;;14.38;95.92;100626.21;106939;1275;22497;-48
2024/04/05 10:49:08;;;;;;;;;;;;;;;14.41;95.31;100633.80;106939;1275;22525;-51
2024/04/05 10:51:34;;;;;;;;;;;;;;;14.44;95.34;100632.72;106812;1275;22510;-47
2024/04/05 10:54:10;;;;;;;;;;;;;;;14.49;95.50;100630.73;106924;1272;22639;-49
2024/04/05 10:56:40;;;;;;;;;;;;;;;14.55;95.59;100620.13;107036;1275;25330;-45
2024/04/05 10:59:10;;;;;;;;;;;;;;;14.62;95.39;100607.89;106901;1275;24129;-45
2024/04/05 11:01:38;;;;;;;;;;;;;;;14.69;95.56;100604.52;106922;1275;22481;-47
2024/04/05 11:04:05;;;;;;;;;;;;;;;14.75;94.82;100600.80;106973;1275;22445;-49
2024/04/05 11:06:31;;;;;;;;;;;;;;;14.81;94.51;100597.55;106820;1271;24571;-50
2024/04/05 11:08:58;;;;;;;;;;;;;;;14.85;94.37;100603.05;106896;1275;25047;-47
2024/04/05 11:11:28;;;;;;;;;;;;;;;14.91;94.26;100604.08;106953;1275;25393;-47
2024/04/05 11:14:02;;;;;;;;;;;;;;;14.95;93.66;100597.99;106908;1275;25162;-47
2024/04/05 11:16:33;;;;;;;;;;;;;;;14.99;92.96;100601.23;106921;1275;22442;-45
2024/04/05 11:19:00;;;;;;;;;;;;;;;15.01;92.56;100600.03;106976;1275;22813;-46
2024/04/05 11:21:27;;;;;;;;;;;;;;;15.03;92.11;100595.66;106969;1275;22625;-48
2024/04/05 11:23:56;;;;;;;;;;;;;;;15.05;91.97;100601.02;106953;1275;25376;-46
2024/04/05 11:26:30;;;;;;;;;;;;;;;15.07;92.07;100611.50;106948;1275;22506;-47
2024/04/05 11:29:00;;;;;;;;;;;;;;;15.08;91.78;100614.78;106910;1273;25302;-45
2024/04/05 11:31:27;;;;;;;;;;;;;;;15.10;91.46;100615.73;106888;1275;22479;-46
2024/04/05 11:33:54;;;;;;;;;;;;;;;15.11;91.20;100619.20;106788;1275;25357;-45
2024/04/05 11:36:26;;;;;;;;;;;;;;;15.12;90.84;100608.42;106880;1275;22622;-45
2024/04/05 11:38:53;;;;;;;;;;;;;;;15.14;90.83;100600.08;106782;1275;25340;-46
2024/04/05 11:41:19;;;;;;;;;;;;;;;15.17;90.52;100596.99;106843;1275;25924;-45
2024/04/05 11:43:49;;;;;;;;;;;;;;;15.21;89.83;100596.52;106962;1275;22629;-46
2024/04/05 11:46:16;;;;;;;;;;;;;;;15.25;89.40;100593.33;106957;1275;24164;-45
2024/04/05 11:48:43;;;;;;;;;;;;;;;15.30;89.18;100592.90;106883;1275;22527;-45
2024/04/05 11:51:10;;;;;;;;;;;;;;;15.34;89.01;100589.03;106804;1270;25340;-46
2024/04/05 11:53:36;;;;;;;;;;;;;;;15.37;88.95;100591.08;106793;1275;22529;-47
2024/04/05 11:56:03;;;;;;;;;;;;;;;15.39;88.80;100605.86;106931;1272;22421;-45
2024/04/05 11:58:33;;;;;;;;;;;;;;;15.40;88.63;100607.03;106909;1275;22451;-46
2024/04/05 12:01:02;;;;;;;;;;;;;;;15.42;89.18;100607.31;107016;1275;24179;-46
2024/04/05 12:03:31;;;;;;;;;;;;;;;15.42;88.91;100601.39;106842;1275;22531;-46
2024/04/05 12:05:58;;;;;;;;;;;;;;;15.42;88.78;100605.85;106966;1275;22597;-48
2024/04/05 12:08:24;;;;;;;;;;;;;;;15.41;88.65;100610.20;106983;1275;22697;-46
2024/04/05 12:10:51;;;;;;;;;;;;;;;15.39;88.25;100606.64;106930;1275;22492;-46
2024/04/05 12:13:17;;;;;;;;;;;;;;;15.37;87.94;100609.49;106917;1275;25318;-47
2024/04/05 12:15:44;;;;;;;;;;;;;;;15.35;87.61;100614.27;106887;1275;22550;-48
2024/04/05 12:18:12;;;;;;;;;;;;;;;15.34;87.48;100624.67;106963;1275;22706;-48
2024/04/05 12:20:44;;;;;;;;;;;;;;;15.34;87.43;100625.94;106933;1275;24203;-49
2024/04/05 12:23:14;;;;;;;;;;;;;;;15.35;87.35;100635.30;107013;1275;22416;-47
2024/04/05 12:25:40;;;;;;;;;;;;;;;15.36;87.59;100646.06;106845;1275;22536;-45
2024/04/05 12:28:07;;;;;;;;;;;;;;;15.36;87.65;100661.53;106895;1275;24215;-47